Time;durP1;ratioP1;P1;durP2;ratioP2;P2;SDS_P1;SDS_P2;PMS_P1;PMS_P2;Temp;Humidity;BMP_temperature;BMP_pressure;BME280_temperature;BME280_humidity;BME280_pressure;Samples;Min_cycle;Max_cycle;Signal;HPM_P1;HPM_P2
2022/09/06 00:02:02;;;;;;;10.03;6.13;;;;;;;17.60;100.00;101410.63;5056312;28;20074;-86
2022/09/06 00:04:28;;;;;;;13.07;6.10;;;;;;;17.46;100.00;101476.78;5039042;28;20036;-88
2022/09/06 00:06:56;;;;;;;11.60;5.57;;;;;;;17.22;100.00;101478.00;5040021;28;20036;-87
2022/09/06 00:09:22;;;;;;;8.90;6.68;;;;;;;16.96;100.00;101474.75;5055556;28;20523;-87
2022/09/06 00:11:47;;;;;;;6.43;5.77;;;;;;;16.81;100.00;101494.41;5073904;28;20035;-87
2022/09/06 00:14:13;;;;;;;7.77;6.03;;;;;;;16.77;100.00;101516.00;5039614;28;20286;-87
2022/09/06 00:16:43;;;;;;;7.53;6.27;;;;;;;16.70;100.00;101518.03;5056036;28;20033;-88
2022/09/06 00:19:11;;;;;;;10.23;6.88;;;;;;;16.63;100.00;101523.63;5039410;28;20398;-88
2022/09/06 00:21:40;;;;;;;12.02;7.70;;;;;;;16.65;100.00;101540.66;5055875;28;20120;-87
2022/09/06 00:24:05;;;;;;;10.65;7.70;;;;;;;16.65;100.00;101548.03;5055805;28;20032;-86
2022/09/06 00:26:30;;;;;;;9.20;7.57;;;;;;;16.63;100.00;101531.00;5055840;28;20093;-85
2022/09/06 00:28:56;;;;;;;11.13;8.07;;;;;;;16.59;100.00;101547.06;5055846;28;20036;-85
2022/09/06 00:31:26;;;;;;;9.00;7.55;;;;;;;16.53;100.00;101550.78;5073389;28;20044;-85
2022/09/06 00:33:52;;;;;;;12.95;8.70;;;;;;;16.52;100.00;101549.13;5073200;28;20025;-86
2022/09/06 00:36:19;;;;;;;13.77;8.87;;;;;;;16.63;100.00;101531.00;5055830;28;20036;-86
2022/09/06 00:38:44;;;;;;;10.55;8.50;;;;;;;16.70;100.00;101522.66;5055754;28;20047;-87
2022/09/06 00:41:14;;;;;;;11.45;9.05;;;;;;;16.69;100.00;101530.03;5055228;28;20036;-86
2022/09/06 00:43:41;;;;;;;12.33;8.03;;;;;;;16.75;100.00;101520.03;5054930;28;20050;-87
2022/09/06 00:46:10;;;;;;;17.33;8.98;;;;;;;16.91;100.00;101521.25;5055498;28;20086;-87
2022/09/06 00:48:40;;;;;;;13.25;9.55;;;;;;;16.98;100.00;101510.97;5055283;28;20052;-86
2022/09/06 00:51:11;;;;;;;11.70;9.18;;;;;;;17.08;100.00;101511.19;5073209;28;20028;-87
2022/09/06 00:53:37;;;;;;;12.18;9.45;;;;;;;17.18;100.00;101499.56;5055540;28;20028;-87
2022/09/06 00:56:05;;;;;;;11.27;8.83;;;;;;;17.18;100.00;101500.44;5055441;28;20035;-87
2022/09/06 00:58:34;;;;;;;12.65;8.77;;;;;;;17.22;100.00;101495.28;5055440;28;20127;-87
2022/09/06 01:01:00;;;;;;;13.13;9.43;;;;;;;17.26;100.00;101490.13;5055783;28;20044;-87
2022/09/06 01:03:26;;;;;;;13.35;9.27;;;;;;;17.33;100.00;101479.84;5054837;28;20029;-87
2022/09/06 01:06:10;;;;;;;12.40;9.70;;;;;;;17.35;100.00;101474.97;5038655;28;20036;-87
2022/09/06 01:08:54;;;;;;;12.52;9.40;;;;;;;17.42;100.00;101477.53;5055652;28;20067;-87
2022/09/06 01:11:57;;;;;;;11.52;8.98;;;;;;;17.35;100.00;101477.72;5055245;28;20039;-87
2022/09/06 01:14:47;;;;;;;11.27;9.13;;;;;;;17.39;100.00;101467.91;5073338;28;20032;-86
2022/09/06 01:17:42;;;;;;;13.70;9.30;;;;;;;17.41;100.00;101459.44;5073587;28;20474;-86
2022/09/06 01:20:43;;;;;;;10.60;9.03;;;;;;;17.45;100.00;101447.72;5055780;28;20028;-86
2022/09/06 01:23:22;;;;;;;13.85;8.77;;;;;;;17.44;100.00;101429.59;5041940;28;20032;-87
2022/09/06 01:26:04;;;;;;;11.15;8.73;;;;;;;17.32;100.00;101404.16;5059861;28;20521;-87
2022/09/06 01:28:41;;;;;;;12.13;8.80;;;;;;;17.35;100.00;101376.22;5059227;28;20032;-87
2022/09/06 01:31:12;;;;;;;11.30;8.85;;;;;;;17.40;100.00;101367.25;5059152;28;20028;-87
2022/09/06 01:33:50;;;;;;;11.87;9.37;;;;;;;17.35;100.00;101357.03;5076681;28;20025;-87
2022/09/06 01:36:21;;;;;;;12.55;9.07;;;;;;;17.30;100.00;101351.44;5059145;28;20379;-87
2022/09/06 01:38:46;;;;;;;11.20;9.30;;;;;;;17.25;100.00;101337.66;5059022;28;20025;-87
2022/09/06 01:41:21;;;;;;;12.30;9.30;;;;;;;17.23;100.00;101335.16;5058871;28;20090;-87
2022/09/06 01:43:50;;;;;;;10.50;8.93;;;;;;;17.17;100.00;101319.72;5058623;28;20101;-87
2022/09/06 01:46:25;;;;;;;13.23;8.07;;;;;;;17.07;100.00;101312.13;5058903;28;20382;-86
2022/09/06 01:49:13;;;;;;;12.10;8.02;;;;;;;17.05;100.00;101302.50;5076801;28;20078;-87
2022/09/06 01:52:01;;;;;;;12.40;8.07;;;;;;;17.03;100.00;101282.72;5058977;28;20028;-87
2022/09/06 01:54:48;;;;;;;12.80;8.52;;;;;;;16.93;100.00;101273.25;5058754;28;20099;-86
2022/09/06 01:57:40;;;;;;;12.32;8.73;;;;;;;16.89;100.00;101274.81;5058569;28;20028;-87
2022/09/06 02:00:16;;;;;;;11.05;8.65;;;;;;;16.90;100.00;101283.88;5058902;28;20072;-87
2022/09/06 02:03:41;;;;;;;13.05;8.85;;;;;;;16.89;100.00;101324.16;5058524;28;20060;-87
2022/09/06 02:06:17;;;;;;;13.30;8.03;;;;;;;16.74;100.00;101364.91;4975645;28;20034;-87
2022/09/06 02:08:51;;;;;;;12.30;7.80;;;;;;;16.56;100.00;101333.88;4975398;28;20037;-87
2022/09/06 02:11:19;;;;;;;8.85;7.68;;;;;;;16.51;100.00;101332.97;5032179;28;20037;-87
2022/09/06 02:13:59;;;;;;;10.05;7.80;;;;;;;16.51;100.00;101331.06;5058341;28;20020;-87
2022/09/06 02:16:29;;;;;;;10.02;7.70;;;;;;;16.46;100.00;101326.31;5076265;28;20036;-87
2022/09/06 02:19:02;;;;;;;11.00;7.93;;;;;;;16.44;100.00;101320.25;5057789;28;20032;-87
2022/09/06 02:21:35;;;;;;;12.52;8.73;;;;;;;16.50;100.00;101323.91;5076364;28;20024;-87
2022/09/06 02:24:06;;;;;;;10.85;8.88;;;;;;;16.52;100.00;101331.88;5057971;28;20032;-87
2022/09/06 02:26:36;;;;;;;14.30;9.23;;;;;;;16.61;100.00;101325.78;5058214;28;20028;-87
2022/09/06 02:29:01;;;;;;;10.32;9.18;;;;;;;16.57;100.00;101332.81;5058296;28;20382;-87
2022/09/06 02:31:41;;;;;;;9.93;8.93;;;;;;;16.54;100.00;101324.28;5057326;28;20024;-87
2022/09/06 02:34:08;;;;;;;13.32;9.50;;;;;;;16.54;100.00;101336.06;5057116;28;20029;-87
2022/09/06 02:36:35;;;;;;;12.90;9.32;;;;;;;16.55;100.00;101315.81;5058020;28;20394;-87
2022/09/06 02:39:03;;;;;;;16.03;9.33;;;;;;;16.49;100.00;101317.63;5057805;28;20130;-87
2022/09/06 02:41:29;;;;;;;14.82;10.43;;;;;;;16.58;100.00;101318.06;5057675;28;20032;-87
2022/09/06 02:43:55;;;;;;;13.98;10.77;;;;;;;16.62;100.00;101316.50;5057272;28;20071;-88
2022/09/06 02:46:23;;;;;;;11.73;9.87;;;;;;;16.58;100.00;101312.59;5058421;28;20481;-87
2022/09/06 02:48:48;;;;;;;12.23;9.77;;;;;;;16.63;100.00;101320.06;5041285;28;20033;-87
2022/09/06 02:51:14;;;;;;;12.90;9.80;;;;;;;16.62;100.00;101321.13;5041041;28;20028;-87
2022/09/06 02:53:42;;;;;;;12.63;9.67;;;;;;;16.62;100.00;101332.09;5057548;28;20103;-87
2022/09/06 02:56:08;;;;;;;12.82;9.85;;;;;;;16.57;100.00;101327.34;5057681;28;20111;-87
2022/09/06 02:58:37;;;;;;;13.30;10.07;;;;;;;16.64;100.00;101324.47;5075322;28;20124;-88
2022/09/06 03:01:05;;;;;;;13.63;9.82;;;;;;;16.69;100.00;101324.56;5057341;28;20029;-88
2022/09/06 03:03:31;;;;;;;15.85;10.02;;;;;;;16.74;100.00;101332.03;5057037;28;20124;-87
2022/09/06 03:05:59;;;;;;;15.47;10.80;;;;;;;16.75;100.00;101326.31;5057017;28;20060;-87
2022/09/06 03:08:33;;;;;;;13.75;10.35;;;;;;;16.76;100.00;101336.22;5057267;28;20028;-87
2022/09/06 03:11:06;;;;;;;12.82;9.40;;;;;;;16.76;100.00;101329.91;5057246;28;20028;-88
2022/09/06 03:13:32;;;;;;;11.65;9.80;;;;;;;16.76;100.00;101324.44;5057350;28;20041;-87
2022/09/06 03:15:58;;;;;;;13.63;9.57;;;;;;;16.72;100.00;101326.81;5057154;28;20093;-87
2022/09/06 03:18:25;;;;;;;12.43;9.05;;;;;;;16.69;100.00;101326.47;5075037;28;20025;-86
2022/09/06 03:20:52;;;;;;;10.35;9.32;;;;;;;16.65;100.00;101326.97;5057048;28;20025;-87
2022/09/06 03:23:19;;;;;;;13.07;9.00;;;;;;;16.54;100.00;101333.31;5074635;28;20466;-88
2022/09/06 03:25:44;;;;;;;14.10;9.73;;;;;;;16.48;100.00;101324.16;5056665;28;20029;-87
2022/09/06 03:28:11;;;;;;;13.38;8.93;;;;;;;16.45;100.00;101327.38;5056721;28;20029;-87
2022/09/06 03:30:39;;;;;;;10.20;8.30;;;;;;;16.45;100.00;101332.03;5057047;28;20355;-87
2022/09/06 03:33:05;;;;;;;9.70;8.50;;;;;;;16.41;100.00;101330.84;5074508;28;20029;-87
2022/09/06 03:35:33;;;;;;;10.85;9.18;;;;;;;16.39;100.00;101333.03;5056409;28;20386;-87
2022/09/06 03:37:58;;;;;;;12.20;9.17;;;;;;;16.36;100.00;101333.47;5056705;28;20537;-87
2022/09/06 03:40:26;;;;;;;12.00;9.05;;;;;;;16.30;100.00;101329.81;5056520;28;20115;-87
2022/09/06 03:42:52;;;;;;;13.83;9.70;;;;;;;16.31;100.00;101321.38;5056285;28;20455;-87
2022/09/06 03:45:20;;;;;;;12.40;9.13;;;;;;;16.27;100.00;101322.09;5039843;28;20132;-87
2022/09/06 03:47:48;;;;;;;13.47;9.60;;;;;;;16.24;100.00;101323.41;5074479;28;20036;-87
2022/09/06 03:50:13;;;;;;;14.43;9.57;;;;;;;16.24;100.00;101331.63;5056505;28;20036;-88
2022/09/06 03:52:41;;;;;;;13.27;9.70;;;;;;;16.19;100.00;101326.03;5039383;28;20540;-88
2022/09/06 03:55:07;;;;;;;14.15;9.77;;;;;;;16.12;100.00;101322.59;5056269;28;20047;-87
2022/09/06 03:57:33;;;;;;;14.98;10.52;;;;;;;16.07;100.00;101328.78;5056142;28;20025;-88
2022/09/06 04:00:05;;;;;;;12.80;10.13;;;;;;;16.04;100.00;101331.19;5056188;28;20031;-87
2022/09/06 04:02:30;;;;;;;12.05;9.73;;;;;;;16.03;100.00;101333.06;5039625;28;20024;-88
2022/09/06 04:04:56;;;;;;;11.87;9.93;;;;;;;16.03;100.00;101345.94;5039149;28;20078;-87
2022/09/06 04:07:24;;;;;;;12.97;10.07;;;;;;;15.98;100.00;101341.19;5056072;28;20521;-87
2022/09/06 04:09:51;;;;;;;14.90;10.38;;;;;;;15.94;100.00;101345.47;5056167;28;20028;-88
2022/09/06 04:12:17;;;;;;;14.73;10.60;;;;;;;15.92;100.00;101353.91;5055800;28;20032;-88
2022/09/06 04:14:42;;;;;;;12.90;10.33;;;;;;;15.88;100.00;101358.19;5039494;28;20032;-87
2022/09/06 04:17:08;;;;;;;15.05;10.30;;;;;;;15.78;100.00;101347.88;5056023;28;20390;-87
2022/09/06 04:19:33;;;;;;;15.20;11.30;;;;;;;15.75;100.00;101359.25;5073603;28;20028;-87
2022/09/06 04:22:01;;;;;;;14.20;11.63;;;;;;;15.70;100.00;101358.28;5055681;28;20025;-87
2022/09/06 04:24:26;;;;;;;14.43;11.80;;;;;;;15.66;100.00;101355.19;5039391;28;20440;-87
2022/09/06 04:26:54;;;;;;;16.73;12.03;;;;;;;15.59;100.00;101363.50;5056158;28;20024;-87
2022/09/06 04:29:19;;;;;;;15.27;12.27;;;;;;;15.56;100.00;101369.47;5055905;28;20466;-87
2022/09/06 04:31:45;;;;;;;17.20;11.90;;;;;;;15.56;100.00;101365.88;5055772;28;20036;-88
2022/09/06 04:34:10;;;;;;;19.00;12.73;;;;;;;15.51;100.00;101363.84;5055105;28;20035;-87
2022/09/06 04:36:36;;;;;;;16.65;12.98;;;;;;;15.55;100.00;101361.50;5055374;28;20023;-88
2022/09/06 04:39:02;;;;;;;16.00;12.13;;;;;;;15.52;100.00;101360.06;5055646;28;20028;-88
2022/09/06 04:41:32;;;;;;;15.45;12.32;;;;;;;15.51;100.00;101363.84;5039062;28;20493;-87
2022/09/06 04:43:59;;;;;;;16.55;12.80;;;;;;;15.49;100.00;101360.53;5022979;28;20130;-87
2022/09/06 04:46:27;;;;;;;19.20;13.17;;;;;;;15.51;100.00;101366.59;5032557;28;20041;-89
2022/09/06 04:48:54;;;;;;;17.58;13.15;;;;;;;15.48;100.00;101371.72;5032341;28;20091;-87
2022/09/06 04:51:23;;;;;;;18.30;13.30;;;;;;;15.44;100.00;101374.06;5032094;28;20043;-87
2022/09/06 04:53:49;;;;;;;18.80;13.05;;;;;;;15.38;100.00;101369.53;5032175;28;20037;-88
2022/09/06 04:56:21;;;;;;;16.75;13.52;;;;;;;15.36;100.00;101367.03;5031554;28;20151;-87
2022/09/06 04:58:48;;;;;;;18.37;14.03;;;;;;;15.32;100.00;101365.84;5033561;28;20079;-87
2022/09/06 05:01:14;;;;;;;19.73;14.38;;;;;;;15.32;100.00;101374.03;5032008;28;20390;-87
2022/09/06 05:03:40;;;;;;;20.95;14.23;;;;;;;15.29;100.00;101362.75;5031579;28;20033;-86
2022/09/06 05:06:17;;;;;;;18.50;14.40;;;;;;;15.27;100.00;101363.00;5032183;28;20033;-87
2022/09/06 05:08:42;;;;;;;16.77;13.82;;;;;;;15.25;100.00;101356.91;5032286;28;20058;-87
2022/09/06 05:11:10;;;;;;;20.17;14.23;;;;;;;15.26;100.00;101353.09;5031883;28;20060;-87
2022/09/06 05:13:36;;;;;;;20.50;14.05;;;;;;;15.26;100.00;101356.69;5033195;28;20053;-87
2022/09/06 05:16:03;;;;;;;20.13;14.40;;;;;;;15.22;100.00;101346.44;5031972;28;20034;-87
2022/09/06 05:18:35;;;;;;;21.10;14.40;;;;;;;15.27;100.00;101352.88;5031701;28;20029;-87
2022/09/06 05:21:03;;;;;;;19.65;15.23;;;;;;;15.29;100.00;101358.09;5031890;28;20117;-86
2022/09/06 05:23:28;;;;;;;19.03;15.10;;;;;;;15.35;100.00;101354.44;5031931;28;20025;-88
2022/09/06 05:25:54;;;;;;;24.50;15.90;;;;;;;15.33;100.00;101362.03;5015538;28;20030;-90
2022/09/06 05:28:20;;;;;;;22.37;15.17;;;;;;;15.37;100.00;101362.44;5015667;28;20082;-89
2022/09/06 05:31:23;;;;;;;22.70;15.50;;;;;;;15.41;100.00;101367.19;5031815;28;20087;-92
2022/09/06 05:33:53;;;;;;;21.97;15.23;;;;;;;15.45;100.00;101359.34;5031169;28;20063;-88
2022/09/06 05:36:22;;;;;;;24.65;15.23;;;;;;;15.52;100.00;101368.25;5032016;28;20045;-89
2022/09/06 05:38:47;;;;;;;21.77;15.23;;;;;;;15.52;100.00;101368.25;5032292;28;20029;-87
2022/09/06 05:41:13;;;;;;;22.77;15.00;;;;;;;15.56;100.00;101363.13;5032125;28;20048;-87
2022/09/06 05:43:40;;;;;;;20.15;13.38;;;;;;;15.56;100.00;101364.00;5031589;28;20575;-84
2022/09/06 05:46:06;;;;;;;20.37;13.97;;;;;;;15.61;100.00;101366.00;5032786;28;20088;-85
2022/09/06 05:48:41;;;;;;;18.38;13.05;;;;;;;15.60;100.00;101373.41;5035415;28;20044;-89
2022/09/06 05:51:12;;;;;;;19.87;13.13;;;;;;;15.67;100.00;101373.28;5041643;28;20511;-89
2022/09/06 05:53:45;;;;;;;17.55;12.90;;;;;;;15.68;100.00;101366.75;5051338;28;20025;-89
2022/09/06 05:56:13;;;;;;;16.70;12.25;;;;;;;15.72;100.00;101369.81;5051787;28;20033;-89
2022/09/06 05:58:39;;;;;;;18.73;12.70;;;;;;;15.76;100.00;101369.09;5052696;28;20021;-89
2022/09/06 06:01:19;;;;;;;16.87;12.13;;;;;;;15.78;100.00;101377.09;5051447;28;20029;-89
2022/09/06 06:04:02;;;;;;;17.13;11.65;;;;;;;15.81;100.00;101364.84;5051295;28;20497;-88
2022/09/06 06:06:30;;;;;;;15.02;11.18;;;;;;;15.87;100.00;101369.38;5051278;28;20021;-88
2022/09/06 06:08:56;;;;;;;12.02;10.65;;;;;;;15.90;100.00;101368.91;5055015;28;20033;-89
2022/09/06 06:11:22;;;;;;;16.87;11.07;;;;;;;15.95;100.00;101369.03;5054794;28;20375;-89
2022/09/06 06:13:47;;;;;;;17.30;11.02;;;;;;;15.98;100.00;101365.81;5054824;28;20466;-88
2022/09/06 06:16:15;;;;;;;12.37;10.53;;;;;;;16.02;100.00;101372.47;5054594;28;20035;-88
2022/09/06 06:18:44;;;;;;;17.85;11.23;;;;;;;16.07;100.00;101369.03;5053895;28;20106;-89
2022/09/06 06:21:19;;;;;;;14.60;10.32;;;;;;;16.09;100.00;101375.94;5038487;28;20033;-89
2022/09/06 06:23:45;;;;;;;14.43;10.38;;;;;;;16.14;100.00;101369.72;5055985;28;20047;-88
2022/09/06 06:26:12;;;;;;;16.75;10.98;;;;;;;16.20;100.00;101363.28;5054443;28;20032;-88
2022/09/06 06:28:40;;;;;;;17.60;10.70;;;;;;;16.23;100.00;101353.78;5054290;28;20412;-88
2022/09/06 06:31:08;;;;;;;14.82;10.40;;;;;;;16.27;100.00;101357.69;5054302;28;20033;-88
2022/09/06 06:33:45;;;;;;;14.82;9.88;;;;;;;16.28;100.00;101360.19;5053849;28;20052;-88
2022/09/06 06:36:23;;;;;;;;;;;;;;;;;;;;;
2022/09/06 06:38:54;;;;;;;15.23;10.35;;;;;;;16.41;100.00;101352.78;5055295;28;20033;-88
2022/09/06 06:41:26;;;;;;;13.03;10.10;;;;;;;16.48;100.00;101357.03;5053938;28;20021;-89
2022/09/06 06:43:57;;;;;;;12.20;8.88;;;;;;;16.48;100.00;101348.00;5079447;28;20051;-89
2022/09/06 06:46:31;;;;;;;12.35;7.90;;;;;;;16.53;100.00;101347.25;5077972;28;20042;-88
2022/09/06 06:49:02;;;;;;;9.75;7.30;;;;;;;16.54;100.00;101352.50;5077656;28;20105;-89
2022/09/06 06:51:34;;;;;;;10.93;7.57;;;;;;;16.61;100.00;101349.63;5077691;28;20024;-89
2022/09/06 06:54:10;;;;;;;8.87;6.63;;;;;;;16.70;100.00;101353.63;5077719;28;20028;-89
2022/09/06 06:56:45;;;;;;;10.63;7.22;;;;;;;16.78;100.00;101353.22;5095522;28;20025;-89
2022/09/06 06:59:13;;;;;;;12.77;6.50;;;;;;;16.91;100.00;101354.88;5077560;28;20068;-89
2022/09/06 07:01:39;;;;;;;8.40;6.28;;;;;;;17.07;100.00;101353.25;5077487;28;20032;-90
2022/09/06 07:04:12;;;;;;;9.65;6.38;;;;;;;17.22;100.00;101349.13;5077047;28;20110;-88
2022/09/06 07:06:52;;;;;;;6.67;6.00;;;;;;;17.34;100.00;101350.69;5077461;28;20028;-87
2022/09/06 07:09:21;;;;;;;9.05;6.20;;;;;;;17.45;100.00;101351.72;5061835;28;20028;-86
2022/09/06 07:11:53;;;;;;;6.10;5.50;;;;;;;17.53;100.00;101336.75;5077171;28;20435;-87
2022/09/06 07:14:28;;;;;;;8.05;5.80;;;;;;;17.62;100.00;101346.22;5077609;28;20069;-93
2022/09/06 07:17:01;;;;;;;5.70;5.13;;;;;;;17.70;100.00;101348.53;5077594;28;20500;-92
2022/09/06 07:19:27;;;;;;;6.57;4.93;;;;;;;17.82;100.00;101336.63;5061378;28;20101;-92
2022/09/06 07:21:57;;;;;;;9.20;4.95;;;;;;;17.90;100.00;101341.72;5077984;28;20473;-92
2022/09/06 07:24:30;;;;;;;7.28;4.88;;;;;;;17.98;100.00;101344.03;5078257;28;20032;-92
2022/09/06 07:27:01;;;;;;;6.73;4.67;;;;;;;18.08;100.00;101348.81;5077997;28;20032;-93
2022/09/06 07:29:38;;;;;;;6.40;4.60;;;;;;;18.16;100.00;101348.41;5077932;28;20024;-93
2022/09/06 07:32:04;;;;;;;5.13;4.63;;;;;;;18.24;100.00;101344.38;5062303;28;20024;-92
2022/09/06 07:34:42;;;;;;;;;;;;;;;;;;;;;
2022/09/06 07:37:10;;;;;;;7.90;4.25;;;;;;;18.35;99.01;101348.06;5079000;28;20028;-92
2022/09/06 07:39:48;;;;;;;6.55;4.38;;;;;;;18.48;97.76;101355.94;5077864;28;20028;-93
2022/09/06 07:42:26;;;;;;;;;;;;;;;;;;;;;
2022/09/06 07:45:01;;;;;;;7.55;4.13;;;;;;;18.62;97.05;101353.63;5096357;28;20074;-93
2022/09/06 07:47:31;;;;;;;4.60;3.57;;;;;;;18.70;95.05;101355.09;5077487;28;20043;-93
2022/09/06 07:50:08;;;;;;;6.03;4.07;;;;;;;18.80;95.55;101357.94;5077666;28;20051;-92
2022/09/06 07:52:33;;;;;;;6.15;3.70;;;;;;;18.89;94.95;101348.16;5061132;28;20036;-92
2022/09/06 07:54:59;;;;;;;6.38;3.45;;;;;;;19.00;94.16;101345.53;5076914;28;20105;-93
2022/09/06 07:57:35;;;;;;;5.87;3.20;;;;;;;19.11;92.47;101342.63;5077102;28;20056;-93
2022/09/06 08:00:06;;;;;;;6.43;3.10;;;;;;;19.20;91.54;101340.22;5061124;28;20032;-94
2022/09/06 08:02:34;;;;;;;4.50;3.25;;;;;;;19.29;92.53;101335.06;5060861;28;20071;-93
2022/09/06 08:05:00;;;;;;;4.90;3.33;;;;;;;19.34;92.17;101332.38;5076911;28;20381;-93
2022/09/06 08:07:51;;;;;;;3.38;2.83;;;;;;;19.44;86.56;101332.47;5076761;28;20021;-92
2022/09/06 08:10:28;;;;;;;5.05;2.92;;;;;;;19.60;87.11;101330.63;5076645;28;20032;-93
2022/09/06 08:13:08;;;;;;;4.60;2.63;;;;;;;19.65;88.36;101349.13;5061754;28;20032;-92
2022/09/06 08:15:59;;;;;;;3.30;3.00;;;;;;;19.62;88.13;101333.97;5061334;28;20032;-93
2022/09/06 08:18:32;;;;;;;3.20;2.85;;;;;;;19.65;85.43;101335.38;5077062;28;20119;-93
2022/09/06 08:21:16;;;;;;;4.20;2.70;;;;;;;19.68;86.33;101343.09;5076678;28;20051;-93
2022/09/06 08:24:00;;;;;;;4.93;2.70;;;;;;;19.74;85.77;101349.47;5076481;28;20536;-93
2022/09/06 08:27:06;;;;;;;4.90;2.45;;;;;;;19.80;83.89;101354.75;5094575;28;20035;-94
2022/09/06 08:29:58;;;;;;;5.13;2.83;;;;;;;19.83;85.58;101358.06;5090219;28;20087;-93
2022/09/06 08:32:37;;;;;;;4.00;2.50;;;;;;;19.93;84.66;101360.88;5076308;28;20516;-93
2022/09/06 08:35:16;;;;;;;3.95;2.97;;;;;;;20.05;82.48;101352.41;5076502;28;20134;-93
2022/09/06 08:40:50;;;;;;;5.25;2.90;;;;;;;20.41;80.49;101347.09;5068825;28;20118;-93
2022/09/06 08:44:08;;;;;;;4.57;2.67;;;;;;;20.53;81.63;101352.38;5076181;28;20065;-94
2022/09/06 08:46:44;;;;;;;5.15;3.20;;;;;;;20.64;80.13;101338.34;5076567;28;20491;-94
2022/09/06 08:50:00;;;;;;;5.40;2.70;;;;;;;20.72;79.92;101345.28;5076270;28;20536;-94
2022/09/06 08:52:31;;;;;;;4.32;2.85;;;;;;;20.81;77.55;101337.31;5092294;28;20117;-94
2022/09/06 08:55:18;;;;;;;6.13;3.20;;;;;;;20.90;78.11;101345.88;5076980;28;20039;-93
2022/09/06 08:58:27;;;;;;;;;;;;;;;;;;;;;
2022/09/06 09:01:09;;;;;;;;;;;;;;;;;;;;;
2022/09/06 09:03:44;;;;;;;3.15;2.85;;;;;;;21.09;75.46;101344.25;5094528;28;20123;-94
2022/09/06 09:16:22;;;;;;;4.15;2.55;;;;;;;21.45;73.69;101321.34;5012473;28;20068;-94
2022/09/06 09:19:10;;;;;;;7.35;2.53;;;;;;;21.51;74.74;101317.50;5012244;28;20038;-91
2022/09/06 09:21:47;;;;;;;3.80;2.75;;;;;;;21.58;73.32;101333.81;5065071;28;20455;-94
2022/09/06 09:24:23;;;;;;;6.43;2.90;;;;;;;21.60;73.15;101324.13;5094218;28;20077;-91
2022/09/06 09:27:13;;;;;;;7.00;2.70;;;;;;;21.68;73.88;101331.84;5059675;28;20028;-92
2022/09/06 09:30:00;;;;;;;5.75;2.63;;;;;;;21.78;73.00;101332.94;5076127;28;20032;-91
2022/09/06 09:32:40;;;;;;;7.00;2.67;;;;;;;21.84;73.23;101332.66;5075784;28;20537;-93
2022/09/06 09:35:38;;;;;;;4.88;2.90;;;;;;;21.98;74.14;101335.66;5075507;28;20039;-91
2022/09/06 09:38:32;;;;;;;;;;;;;;;;;;;;;
2022/09/06 09:41:25;;;;;;;4.17;2.50;;;;;;;22.19;71.81;101332.81;5094230;28;20038;-91
2022/09/06 09:44:17;;;;;;;;;;;;;;;;;;;;;
2022/09/06 09:46:55;;;;;;;;;;;;;;;;;;;;;
2022/09/06 09:49:23;;;;;;;5.70;3.15;;;;;;;22.32;68.95;101325.88;5097295;28;20028;-92
2022/09/06 09:52:28;;;;;;;3.97;3.00;;;;;;;22.39;71.29;101318.94;5079286;28;20028;-92
2022/09/06 09:55:09;;;;;;;4.53;3.27;;;;;;;22.52;69.52;101322.22;4998629;28;20030;-92
2022/09/06 09:57:54;;;;;;;8.18;2.92;;;;;;;22.62;70.32;101321.31;5055302;28;20040;-93
2022/09/06 10:01:04;;;;;;;3.47;3.13;;;;;;;22.64;69.40;101317.16;5043885;28;20117;-92
2022/09/06 10:03:48;;;;;;;8.52;3.45;;;;;;;22.70;68.59;101327.06;5078808;28;20035;-92
2022/09/06 10:06:35;;;;;;;6.20;3.63;;;;;;;22.78;68.12;101322.88;5048365;28;20046;-92
2022/09/06 10:09:45;;;;;;;3.80;3.40;;;;;;;22.90;68.48;101339.94;5097154;28;20103;-92
2022/09/06 10:12:29;;;;;;;7.78;4.40;;;;;;;22.98;66.91;101341.28;5073889;28;20489;-91
2022/09/06 10:14:59;;;;;;;4.45;3.90;;;;;;;23.10;67.43;101343.72;5072405;28;20039;-92
2022/09/06 10:17:31;;;;;;;8.40;4.10;;;;;;;23.19;66.03;101327.31;5068511;28;20020;-91
2022/09/06 10:20:15;;;;;;;9.73;3.55;;;;;;;23.38;65.88;101341.28;5073014;28;20032;-91
2022/09/06 10:23:03;;;;;;;5.27;3.60;;;;;;;23.59;65.90;101350.22;5078559;28;20039;-90
2022/09/06 10:25:50;;;;;;;6.30;3.72;;;;;;;23.79;65.07;101350.03;5072111;28;20537;-91
2022/09/06 10:29:11;;;;;;;;;;;;;;;;;;;;;
2022/09/06 10:31:59;;;;;;;5.15;3.67;;;;;;;24.06;64.79;101345.88;5084226;28;20119;-91
2022/09/06 10:34:58;;;;;;;5.65;3.80;;;;;;;24.27;63.33;101331.78;5075304;28;20478;-91
2022/09/06 10:37:45;;;;;;;5.33;4.00;;;;;;;24.57;62.41;101338.88;5066738;28;20040;-89
2022/09/06 10:40:22;;;;;;;5.72;4.28;;;;;;;24.76;60.72;101336.16;5069786;28;20482;-94
2022/09/06 10:43:09;;;;;;;4.78;3.47;;;;;;;24.98;60.21;101330.00;5066158;28;20031;-95
2022/09/06 10:46:17;;;;;;;9.38;4.07;;;;;;;25.11;60.69;101324.78;5060728;28;20451;-91
2022/09/06 10:49:08;;;;;;;6.90;3.88;;;;;;;25.38;58.88;101321.34;5058914;28;20127;-93
2022/09/06 10:51:48;;;;;;;6.63;4.20;;;;;;;25.71;57.98;101333.22;5070961;28;20025;-92
2022/09/06 10:54:46;;;;;;;;;;;;;;;;;;;;;
2022/09/06 10:57:41;;;;;;;8.02;4.07;;;;;;;25.94;56.49;101316.69;5077184;28;20036;-91
2022/09/06 11:00:25;;;;;;;9.95;4.20;;;;;;;26.14;57.07;101331.31;5065553;28;20073;-92
2022/09/06 11:03:29;;;;;;;9.13;4.10;;;;;;;26.45;55.38;101325.94;5070674;28;20036;-92
2022/09/06 11:06:12;;;;;;;8.30;4.13;;;;;;;26.79;55.36;101319.06;5072296;28;20024;-92
2022/09/06 11:08:58;;;;;;;8.20;4.30;;;;;;;27.04;54.20;101320.41;5065772;28;20394;-92
2022/09/06 11:12:21;;;;;;;6.88;4.28;;;;;;;27.23;52.76;101336.94;5063075;28;20032;-91
2022/09/06 11:15:12;;;;;;;6.30;3.72;;;;;;;29.71;48.03;101342.44;5043144;28;20051;-92
2022/09/06 11:18:04;;;;;;;;;;;;;;;;;;;;;
2022/09/06 11:21:07;;;;;;;8.97;4.00;;;;;;;34.05;37.06;101337.03;5074874;28;20109;-92
2022/09/06 11:24:45;;;;;;;;;;;;;;;;;;;;;
2022/09/06 11:30:25;;;;;;;7.03;3.78;;;;;;;38.73;29.25;101333.81;5077261;28;20455;-93
2022/09/06 11:33:29;;;;;;;8.82;4.63;;;;;;;40.20;28.30;101330.38;5068712;28;20024;-92
2022/09/06 11:36:44;;;;;;;;;;;;;;;;;;;;;
2022/09/06 11:39:26;;;;;;;;;;;;;;;;;;;;;
2022/09/06 11:41:59;;;;;;;11.55;4.50;;;;;;;41.69;23.83;101326.41;5085352;28;20028;-93
2022/09/06 11:44:59;;;;;;;12.93;4.95;;;;;;;41.78;25.40;101317.41;5049804;28;20045;-93
2022/09/06 11:48:04;;;;;;;8.30;4.22;;;;;;;42.97;24.48;101310.38;5044771;28;20060;-93
2022/09/06 11:51:12;;;;;;;7.30;4.60;;;;;;;43.54;23.44;101307.88;5040981;28;20069;-94
2022/09/06 11:53:52;;;;;;;6.30;4.35;;;;;;;44.40;21.80;101300.63;5047416;28;20059;-94
2022/09/06 11:56:40;;;;;;;8.10;4.70;;;;;;;45.15;20.61;101298.16;5048328;28;20032;-94
2022/09/06 11:59:21;;;;;;;5.97;4.93;;;;;;;45.87;19.18;101295.53;5043307;28;20030;-91
2022/09/06 12:02:37;;;;;;;9.52;5.07;;;;;;;47.58;20.06;101299.38;5042713;28;20471;-93
2022/09/06 12:05:08;;;;;;;6.30;4.63;;;;;;;48.41;15.61;101289.84;5041561;28;20037;-93
2022/09/06 12:07:55;;;;;;;7.85;5.90;;;;;;;48.27;15.13;101285.44;5042696;28;20039;-94
2022/09/06 12:10:37;;;;;;;7.43;5.50;;;;;;;48.84;16.16;101282.41;5043033;28;20025;-94
2022/09/06 12:13:44;;;;;;;6.53;5.18;;;;;;;50.10;16.76;101279.13;5033036;28;20455;-93
2022/09/06 12:16:22;;;;;;;8.13;6.45;;;;;;;49.96;15.45;101263.28;5040950;28;20021;-93
2022/09/06 12:18:52;;;;;;;8.70;6.40;;;;;;;51.55;12.89;101259.28;5044908;28;20091;-94
2022/09/06 12:21:46;;;;;;;6.72;6.13;;;;;;;52.45;13.12;101255.22;5041504;28;20053;-94
2022/09/06 12:24:33;;;;;;;7.25;6.47;;;;;;;52.52;13.78;101256.91;5028504;28;20030;-94
2022/09/06 12:27:25;;;;;;;6.78;6.18;;;;;;;52.33;13.46;101259.19;5044354;28;20021;-94
2022/09/06 12:29:58;;;;;;;8.90;6.90;;;;;;;51.90;11.66;101265.25;5045724;28;20026;-93
2022/09/06 12:32:35;;;;;;;7.43;6.77;;;;;;;51.84;13.00;101260.66;5033809;28;20029;-93